sensor_id;sensor_type;location;lat;lon;timestamp;P1;durP1;ratioP1;P2;durP2;ratioP2
75820;SDS011;64454;51.984;9.838;2023-07-28T00:00:45;2.40;;;2.20;;
75820;SDS011;64454;51.984;9.838;2023-07-28T00:03:12;3.33;;;2.55;;
75820;SDS011;64454;51.984;9.838;2023-07-28T00:05:39;2.55;;;2.35;;
75820;SDS011;64454;51.984;9.838;2023-07-28T00:08:06;4.90;;;2.60;;
75820;SDS011;64454;51.984;9.838;2023-07-28T00:10:34;3.20;;;2.50;;
75820;SDS011;64454;51.984;9.838;2023-07-28T00:13:07;2.70;;;2.50;;
75820;SDS011;64454;51.984;9.838;2023-07-28T00:15:34;2.50;;;2.30;;
75820;SDS011;64454;51.984;9.838;2023-07-28T00:18:01;2.72;;;2.33;;
75820;SDS011;64454;51.984;9.838;2023-07-28T00:20:28;2.20;;;2.00;;
75820;SDS011;64454;51.984;9.838;2023-07-28T00:22:55;2.53;;;2.33;;
75820;SDS011;64454;51.984;9.838;2023-07-28T00:25:22;2.30;;;2.10;;
75820;SDS011;64454;51.984;9.838;2023-07-28T00:27:50;2.50;;;1.70;;
75820;SDS011;64454;51.984;9.838;2023-07-28T00:30:17;1.80;;;1.70;;
75820;SDS011;64454;51.984;9.838;2023-07-28T00:32:44;2.53;;;1.60;;
75820;SDS011;64454;51.984;9.838;2023-07-28T00:35:11;1.63;;;1.40;;
75820;SDS011;64454;51.984;9.838;2023-07-28T00:37:38;2.20;;;1.60;;
75820;SDS011;64454;51.984;9.838;2023-07-28T00:40:05;2.67;;;1.93;;
75820;SDS011;64454;51.984;9.838;2023-07-28T00:42:33;1.95;;;1.75;;
75820;SDS011;64454;51.984;9.838;2023-07-28T00:45:02;1.65;;;1.55;;
75820;SDS011;64454;51.984;9.838;2023-07-28T00:47:29;1.85;;;1.58;;
75820;SDS011;64454;51.984;9.838;2023-07-28T00:49:57;4.25;;;1.65;;
75820;SDS011;64454;51.984;9.838;2023-07-28T00:52:24;2.53;;;1.60;;
75820;SDS011;64454;51.984;9.838;2023-07-28T00:54:51;2.00;;;1.40;;
75820;SDS011;64454;51.984;9.838;2023-07-28T00:57:18;1.90;;;1.60;;
75820;SDS011;64454;51.984;9.838;2023-07-28T00:59:45;1.90;;;1.10;;
75820;SDS011;64454;51.984;9.838;2023-07-28T01:02:14;2.28;;;1.58;;
75820;SDS011;64454;51.984;9.838;2023-07-28T01:04:41;2.60;;;1.40;;
75820;SDS011;64454;51.984;9.838;2023-07-28T01:07:08;2.65;;;1.23;;
75820;SDS011;64454;51.984;9.838;2023-07-28T01:09:40;1.40;;;1.20;;
75820;SDS011;64454;51.984;9.838;2023-07-28T01:12:15;1.92;;;1.73;;
75820;SDS011;64454;51.984;9.838;2023-07-28T01:14:43;3.47;;;1.33;;
75820;SDS011;64454;51.984;9.838;2023-07-28T01:17:10;1.38;;;1.10;;
75820;SDS011;64454;51.984;9.838;2023-07-28T01:19:38;1.30;;;1.20;;
75820;SDS011;64454;51.984;9.838;2023-07-28T01:22:15;1.25;;;0.90;;
75820;SDS011;64454;51.984;9.838;2023-07-28T01:25:11;1.67;;;1.10;;
75820;SDS011;64454;51.984;9.838;2023-07-28T01:27:49;1.92;;;0.90;;
75820;SDS011;64454;51.984;9.838;2023-07-28T01:30:18;1.10;;;0.70;;
75820;SDS011;64454;51.984;9.838;2023-07-28T01:32:46;1.40;;;0.70;;
75820;SDS011;64454;51.984;9.838;2023-07-28T01:35:14;2.10;;;0.60;;
75820;SDS011;64454;51.984;9.838;2023-07-28T01:37:41;2.63;;;0.55;;
75820;SDS011;64454;51.984;9.838;2023-07-28T01:40:08;1.00;;;0.68;;
75820;SDS011;64454;51.984;9.838;2023-07-28T01:42:35;1.00;;;0.60;;
75820;SDS011;64454;51.984;9.838;2023-07-28T01:45:04;0.90;;;0.50;;
75820;SDS011;64454;51.984;9.838;2023-07-28T01:47:32;0.88;;;0.50;;
75820;SDS011;64454;51.984;9.838;2023-07-28T01:49:59;1.00;;;0.50;;
75820;SDS011;64454;51.984;9.838;2023-07-28T01:52:26;1.10;;;0.60;;
75820;SDS011;64454;51.984;9.838;2023-07-28T01:54:53;2.07;;;0.50;;
75820;SDS011;64454;51.984;9.838;2023-07-28T01:57:20;1.30;;;0.70;;
75820;SDS011;64454;51.984;9.838;2023-07-28T01:59:47;1.00;;;0.50;;
75820;SDS011;64454;51.984;9.838;2023-07-28T02:02:15;1.70;;;0.55;;
75820;SDS011;64454;51.984;9.838;2023-07-28T02:04:42;0.90;;;0.50;;
75820;SDS011;64454;51.984;9.838;2023-07-28T02:07:08;1.15;;;0.50;;
75820;SDS011;64454;51.984;9.838;2023-07-28T02:09:35;1.47;;;0.83;;
75820;SDS011;64454;51.984;9.838;2023-07-28T02:12:02;0.80;;;0.40;;
75820;SDS011;64454;51.984;9.838;2023-07-28T02:14:29;2.60;;;0.70;;
75820;SDS011;64454;51.984;9.838;2023-07-28T02:16:56;0.80;;;0.50;;
75820;SDS011;64454;51.984;9.838;2023-07-28T02:19:25;1.90;;;0.50;;
75820;SDS011;64454;51.984;9.838;2023-07-28T02:21:51;1.70;;;0.50;;
75820;SDS011;64454;51.984;9.838;2023-07-28T02:24:19;1.00;;;0.50;;
75820;SDS011;64454;51.984;9.838;2023-07-28T02:26:46;0.80;;;0.50;;
75820;SDS011;64454;51.984;9.838;2023-07-28T02:29:13;1.00;;;0.40;;
75820;SDS011;64454;51.984;9.838;2023-07-28T02:31:43;0.80;;;0.40;;
75820;SDS011;64454;51.984;9.838;2023-07-28T02:34:09;0.95;;;0.50;;
75820;SDS011;64454;51.984;9.838;2023-07-28T02:36:38;1.98;;;0.50;;
75820;SDS011;64454;51.984;9.838;2023-07-28T02:39:05;0.90;;;0.50;;
75820;SDS011;64454;51.984;9.838;2023-07-28T02:41:32;2.70;;;0.50;;
75820;SDS011;64454;51.984;9.838;2023-07-28T02:43:59;0.70;;;0.38;;
75820;SDS011;64454;51.984;9.838;2023-07-28T02:46:25;1.00;;;0.40;;
75820;SDS011;64454;51.984;9.838;2023-07-28T02:48:52;1.20;;;0.40;;
75820;SDS011;64454;51.984;9.838;2023-07-28T02:51:19;1.20;;;0.50;;
75820;SDS011;64454;51.984;9.838;2023-07-28T02:53:47;1.30;;;0.40;;
75820;SDS011;64454;51.984;9.838;2023-07-28T02:56:14;0.70;;;0.40;;
75820;SDS011;64454;51.984;9.838;2023-07-28T02:58:41;3.50;;;0.60;;
75820;SDS011;64454;51.984;9.838;2023-07-28T03:01:08;1.30;;;0.40;;
75820;SDS011;64454;51.984;9.838;2023-07-28T03:03:35;2.10;;;0.40;;
75820;SDS011;64454;51.984;9.838;2023-07-28T03:06:02;0.70;;;0.40;;
75820;SDS011;64454;51.984;9.838;2023-07-28T03:08:28;0.88;;;0.50;;
75820;SDS011;64454;51.984;9.838;2023-07-28T03:10:57;0.95;;;0.52;;
75820;SDS011;64454;51.984;9.838;2023-07-28T03:13:27;0.70;;;0.40;;
75820;SDS011;64454;51.984;9.838;2023-07-28T03:15:54;1.10;;;0.53;;
75820;SDS011;64454;51.984;9.838;2023-07-28T03:18:21;0.90;;;0.50;;
75820;SDS011;64454;51.984;9.838;2023-07-28T03:20:48;1.20;;;0.50;;
75820;SDS011;64454;51.984;9.838;2023-07-28T03:23:15;0.90;;;0.50;;
75820;SDS011;64454;51.984;9.838;2023-07-28T03:25:42;0.90;;;0.50;;
75820;SDS011;64454;51.984;9.838;2023-07-28T03:28:10;0.90;;;0.57;;
75820;SDS011;64454;51.984;9.838;2023-07-28T03:30:37;0.90;;;0.50;;
75820;SDS011;64454;51.984;9.838;2023-07-28T03:33:04;2.00;;;0.40;;
75820;SDS011;64454;51.984;9.838;2023-07-28T03:35:31;0.90;;;0.50;;
75820;SDS011;64454;51.984;9.838;2023-07-28T03:37:58;1.00;;;0.70;;
75820;SDS011;64454;51.984;9.838;2023-07-28T03:40:24;1.75;;;0.70;;
75820;SDS011;64454;51.984;9.838;2023-07-28T03:42:52;1.00;;;0.60;;
75820;SDS011;64454;51.984;9.838;2023-07-28T03:45:20;1.30;;;0.80;;
75820;SDS011;64454;51.984;9.838;2023-07-28T03:47:47;1.00;;;0.60;;
75820;SDS011;64454;51.984;9.838;2023-07-28T03:50:14;0.90;;;0.60;;
75820;SDS011;64454;51.984;9.838;2023-07-28T03:52:41;1.50;;;0.60;;
75820;SDS011;64454;51.984;9.838;2023-07-28T03:55:08;0.88;;;0.60;;
75820;SDS011;64454;51.984;9.838;2023-07-28T03:57:35;1.20;;;0.63;;
75820;SDS011;64454;51.984;9.838;2023-07-28T04:00:02;1.13;;;0.82;;
75820;SDS011;64454;51.984;9.838;2023-07-28T04:02:32;1.20;;;1.00;;
75820;SDS011;64454;51.984;9.838;2023-07-28T04:04:59;1.00;;;0.70;;
75820;SDS011;64454;51.984;9.838;2023-07-28T04:07:26;1.40;;;0.90;;
75820;SDS011;64454;51.984;9.838;2023-07-28T04:09:53;1.20;;;0.90;;
75820;SDS011;64454;51.984;9.838;2023-07-28T04:12:20;1.92;;;1.30;;
75820;SDS011;64454;51.984;9.838;2023-07-28T04:14:47;2.60;;;1.27;;
75820;SDS011;64454;51.984;9.838;2023-07-28T04:17:14;1.80;;;1.60;;
75820;SDS011;64454;51.984;9.838;2023-07-28T04:19:42;1.80;;;1.60;;
75820;SDS011;64454;51.984;9.838;2023-07-28T04:22:09;1.60;;;1.45;;
75820;SDS011;64454;51.984;9.838;2023-07-28T04:24:35;1.90;;;1.40;;
75820;SDS011;64454;51.984;9.838;2023-07-28T04:27:03;1.50;;;1.30;;
75820;SDS011;64454;51.984;9.838;2023-07-28T04:29:30;3.50;;;1.40;;
75820;SDS011;64454;51.984;9.838;2023-07-28T04:31:57;2.30;;;1.70;;
75820;SDS011;64454;51.984;9.838;2023-07-28T04:34:24;2.40;;;2.20;;
75820;SDS011;64454;51.984;9.838;2023-07-28T04:36:52;2.10;;;1.90;;
75820;SDS011;64454;51.984;9.838;2023-07-28T04:39:20;2.60;;;2.40;;
75820;SDS011;64454;51.984;9.838;2023-07-28T04:41:47;2.25;;;2.00;;
75820;SDS011;64454;51.984;9.838;2023-07-28T04:44:14;2.40;;;2.00;;
75820;SDS011;64454;51.984;9.838;2023-07-28T04:46:42;2.30;;;2.10;;
75820;SDS011;64454;51.984;9.838;2023-07-28T04:49:09;3.50;;;2.20;;
75820;SDS011;64454;51.984;9.838;2023-07-28T04:51:36;2.00;;;1.80;;
75820;SDS011;64454;51.984;9.838;2023-07-28T04:54:04;5.40;;;2.10;;
75820;SDS011;64454;51.984;9.838;2023-07-28T04:56:31;2.63;;;2.42;;
75820;SDS011;64454;51.984;9.838;2023-07-28T04:58:58;2.65;;;2.17;;
75820;SDS011;64454;51.984;9.838;2023-07-28T05:01:25;2.60;;;2.40;;
75820;SDS011;64454;51.984;9.838;2023-07-28T05:03:52;2.70;;;2.22;;
75820;SDS011;64454;51.984;9.838;2023-07-28T05:06:19;2.90;;;2.05;;
75820;SDS011;64454;51.984;9.838;2023-07-28T05:08:46;2.50;;;2.00;;
75820;SDS011;64454;51.984;9.838;2023-07-28T05:11:14;2.15;;;1.88;;
75820;SDS011;64454;51.984;9.838;2023-07-28T05:13:41;2.40;;;1.83;;
75820;SDS011;64454;51.984;9.838;2023-07-28T05:16:09;2.50;;;1.88;;
75820;SDS011;64454;51.984;9.838;2023-07-28T05:18:36;2.60;;;1.85;;
75820;SDS011;64454;51.984;9.838;2023-07-28T05:21:03;2.65;;;1.90;;
75820;SDS011;64454;51.984;9.838;2023-07-28T05:23:30;2.60;;;1.83;;
75820;SDS011;64454;51.984;9.838;2023-07-28T05:25:57;2.17;;;1.65;;
75820;SDS011;64454;51.984;9.838;2023-07-28T05:28:25;2.60;;;1.63;;
75820;SDS011;64454;51.984;9.838;2023-07-28T05:30:52;2.33;;;1.58;;
75820;SDS011;64454;51.984;9.838;2023-07-28T05:33:19;1.55;;;1.40;;
75820;SDS011;64454;51.984;9.838;2023-07-28T05:35:46;2.05;;;1.52;;
75820;SDS011;64454;51.984;9.838;2023-07-28T05:38:12;2.40;;;1.52;;
75820;SDS011;64454;51.984;9.838;2023-07-28T05:40:39;1.40;;;1.25;;
75820;SDS011;64454;51.984;9.838;2023-07-28T05:43:06;1.80;;;1.58;;
75820;SDS011;64454;51.984;9.838;2023-07-28T05:45:35;1.40;;;1.30;;
75820;SDS011;64454;51.984;9.838;2023-07-28T05:48:02;2.35;;;1.50;;
75820;SDS011;64454;51.984;9.838;2023-07-28T05:50:29;2.30;;;1.67;;
75820;SDS011;64454;51.984;9.838;2023-07-28T05:52:55;1.80;;;1.40;;
75820;SDS011;64454;51.984;9.838;2023-07-28T05:55:22;2.17;;;1.88;;
75820;SDS011;64454;51.984;9.838;2023-07-28T05:57:49;2.10;;;1.50;;
75820;SDS011;64454;51.984;9.838;2023-07-28T06:00:16;1.70;;;1.60;;
75820;SDS011;64454;51.984;9.838;2023-07-28T06:02:45;2.40;;;2.10;;
75820;SDS011;64454;51.984;9.838;2023-07-28T06:05:12;2.58;;;1.70;;
75820;SDS011;64454;51.984;9.838;2023-07-28T06:07:39;2.58;;;1.70;;
75820;SDS011;64454;51.984;9.838;2023-07-28T06:10:06;2.00;;;1.80;;
75820;SDS011;64454;51.984;9.838;2023-07-28T06:12:34;2.80;;;1.83;;
75820;SDS011;64454;51.984;9.838;2023-07-28T06:15:01;2.30;;;2.10;;
75820;SDS011;64454;51.984;9.838;2023-07-28T06:17:28;3.03;;;1.90;;
75820;SDS011;64454;51.984;9.838;2023-07-28T06:19:57;2.22;;;1.98;;
75820;SDS011;64454;51.984;9.838;2023-07-28T06:22:25;2.25;;;2.05;;
75820;SDS011;64454;51.984;9.838;2023-07-28T06:24:51;2.10;;;1.90;;
75820;SDS011;64454;51.984;9.838;2023-07-28T06:27:18;3.13;;;2.40;;
75820;SDS011;64454;51.984;9.838;2023-07-28T06:29:45;2.70;;;2.28;;
75820;SDS011;64454;51.984;9.838;2023-07-28T06:32:12;3.30;;;1.90;;
75820;SDS011;64454;51.984;9.838;2023-07-28T06:34:39;2.80;;;2.50;;
75820;SDS011;64454;51.984;9.838;2023-07-28T06:37:08;2.45;;;2.00;;
75820;SDS011;64454;51.984;9.838;2023-07-28T06:39:34;2.95;;;2.30;;
75820;SDS011;64454;51.984;9.838;2023-07-28T06:42:02;2.10;;;1.90;;
75820;SDS011;64454;51.984;9.838;2023-07-28T06:44:29;2.42;;;2.22;;
75820;SDS011;64454;51.984;9.838;2023-07-28T06:46:56;2.70;;;2.10;;
75820;SDS011;64454;51.984;9.838;2023-07-28T06:49:23;2.92;;;1.98;;
75820;SDS011;64454;51.984;9.838;2023-07-28T06:51:50;2.88;;;2.30;;
75820;SDS011;64454;51.984;9.838;2023-07-28T06:54:19;2.30;;;2.10;;
75820;SDS011;64454;51.984;9.838;2023-07-28T06:56:47;2.10;;;1.90;;
75820;SDS011;64454;51.984;9.838;2023-07-28T06:59:14;3.00;;;2.70;;
75820;SDS011;64454;51.984;9.838;2023-07-28T07:01:44;2.88;;;2.45;;
75820;SDS011;64454;51.984;9.838;2023-07-28T07:04:10;2.55;;;2.17;;
75820;SDS011;64454;51.984;9.838;2023-07-28T07:06:38;2.30;;;2.10;;
75820;SDS011;64454;51.984;9.838;2023-07-28T07:09:05;2.55;;;2.35;;
75820;SDS011;64454;51.984;9.838;2023-07-28T07:11:35;3.10;;;2.50;;
75820;SDS011;64454;51.984;9.838;2023-07-28T07:14:02;2.40;;;2.20;;
75820;SDS011;64454;51.984;9.838;2023-07-28T07:16:29;2.30;;;2.10;;
75820;SDS011;64454;51.984;9.838;2023-07-28T07:18:57;2.42;;;2.22;;
75820;SDS011;64454;51.984;9.838;2023-07-28T07:21:24;2.28;;;2.08;;
75820;SDS011;64454;51.984;9.838;2023-07-28T07:23:51;3.13;;;2.20;;
75820;SDS011;64454;51.984;9.838;2023-07-28T07:26:18;2.90;;;2.60;;
75820;SDS011;64454;51.984;9.838;2023-07-28T07:28:46;2.20;;;2.00;;
75820;SDS011;64454;51.984;9.838;2023-07-28T07:31:13;2.45;;;2.15;;
75820;SDS011;64454;51.984;9.838;2023-07-28T07:33:41;2.38;;;2.17;;
75820;SDS011;64454;51.984;9.838;2023-07-28T07:36:11;3.20;;;2.90;;
75820;SDS011;64454;51.984;9.838;2023-07-28T07:38:38;2.78;;;2.45;;
75820;SDS011;64454;51.984;9.838;2023-07-28T07:41:06;2.55;;;2.35;;
75820;SDS011;64454;51.984;9.838;2023-07-28T07:43:35;2.80;;;2.60;;
75820;SDS011;64454;51.984;9.838;2023-07-28T07:46:03;3.20;;;2.40;;
75820;SDS011;64454;51.984;9.838;2023-07-28T07:48:30;2.80;;;2.60;;
75820;SDS011;64454;51.984;9.838;2023-07-28T07:50:57;2.90;;;2.60;;
75820;SDS011;64454;51.984;9.838;2023-07-28T07:53:24;2.88;;;2.58;;
75820;SDS011;64454;51.984;9.838;2023-07-28T07:55:51;2.60;;;2.40;;
75820;SDS011;64454;51.984;9.838;2023-07-28T07:58:18;2.58;;;2.30;;
75820;SDS011;64454;51.984;9.838;2023-07-28T08:00:45;2.78;;;2.58;;
75820;SDS011;64454;51.984;9.838;2023-07-28T08:03:13;3.20;;;2.90;;
75820;SDS011;64454;51.984;9.838;2023-07-28T08:05:40;2.70;;;2.50;;
75820;SDS011;64454;51.984;9.838;2023-07-28T08:08:07;2.60;;;2.40;;
75820;SDS011;64454;51.984;9.838;2023-07-28T08:10:34;2.80;;;2.50;;
75820;SDS011;64454;51.984;9.838;2023-07-28T08:13:01;3.70;;;2.90;;
75820;SDS011;64454;51.984;9.838;2023-07-28T08:15:29;2.50;;;2.30;;
75820;SDS011;64454;51.984;9.838;2023-07-28T08:17:56;2.80;;;2.60;;
75820;SDS011;64454;51.984;9.838;2023-07-28T08:20:24;3.33;;;2.90;;
75820;SDS011;64454;51.984;9.838;2023-07-28T08:22:51;2.90;;;2.60;;
75820;SDS011;64454;51.984;9.838;2023-07-28T08:25:18;3.20;;;2.60;;
75820;SDS011;64454;51.984;9.838;2023-07-28T08:27:47;2.70;;;2.50;;
75820;SDS011;64454;51.984;9.838;2023-07-28T08:30:14;3.10;;;2.60;;
75820;SDS011;64454;51.984;9.838;2023-07-28T08:32:41;2.58;;;2.38;;
75820;SDS011;64454;51.984;9.838;2023-07-28T08:35:09;2.78;;;2.47;;
75820;SDS011;64454;51.984;9.838;2023-07-28T08:37:37;2.92;;;2.63;;
75820;SDS011;64454;51.984;9.838;2023-07-28T08:40:05;2.80;;;2.60;;
75820;SDS011;64454;51.984;9.838;2023-07-28T08:42:35;3.00;;;2.70;;
75820;SDS011;64454;51.984;9.838;2023-07-28T08:45:04;2.92;;;2.60;;
75820;SDS011;64454;51.984;9.838;2023-07-28T08:47:33;3.10;;;2.80;;
75820;SDS011;64454;51.984;9.838;2023-07-28T08:50:00;2.27;;;2.07;;
75820;SDS011;64454;51.984;9.838;2023-07-28T08:52:28;4.07;;;2.85;;
75820;SDS011;64454;51.984;9.838;2023-07-28T08:54:56;3.47;;;3.17;;
75820;SDS011;64454;51.984;9.838;2023-07-28T08:57:23;3.10;;;2.80;;
75820;SDS011;64454;51.984;9.838;2023-07-28T08:59:50;2.60;;;2.40;;
75820;SDS011;64454;51.984;9.838;2023-07-28T09:02:18;2.50;;;2.30;;
75820;SDS011;64454;51.984;9.838;2023-07-28T09:04:47;2.58;;;2.35;;
75820;SDS011;64454;51.984;9.838;2023-07-28T09:07:15;3.10;;;2.50;;
75820;SDS011;64454;51.984;9.838;2023-07-28T09:09:42;2.50;;;2.30;;
75820;SDS011;64454;51.984;9.838;2023-07-28T09:12:10;3.40;;;3.10;;
75820;SDS011;64454;51.984;9.838;2023-07-28T09:14:38;3.50;;;3.20;;
75820;SDS011;64454;51.984;9.838;2023-07-28T09:17:06;3.78;;;3.47;;
75820;SDS011;64454;51.984;9.838;2023-07-28T09:19:40;4.35;;;3.95;;
75820;SDS011;64454;51.984;9.838;2023-07-28T09:22:17;4.75;;;4.35;;
75820;SDS011;64454;51.984;9.838;2023-07-28T09:24:45;5.25;;;4.75;;
75820;SDS011;64454;51.984;9.838;2023-07-28T09:27:20;5.50;;;5.00;;
75820;SDS011;64454;51.984;9.838;2023-07-28T09:29:49;5.40;;;4.90;;
75820;SDS011;64454;51.984;9.838;2023-07-28T09:32:26;5.40;;;4.90;;
75820;SDS011;64454;51.984;9.838;2023-07-28T09:35:05;5.53;;;4.80;;
75820;SDS011;64454;51.984;9.838;2023-07-28T09:37:35;5.15;;;4.65;;
75820;SDS011;64454;51.984;9.838;2023-07-28T09:40:05;5.47;;;4.97;;
75820;SDS011;64454;51.984;9.838;2023-07-28T09:42:38;5.63;;;5.13;;
75820;SDS011;64454;51.984;9.838;2023-07-28T09:45:05;5.25;;;4.75;;
75820;SDS011;64454;51.984;9.838;2023-07-28T09:47:34;4.93;;;4.43;;
75820;SDS011;64454;51.984;9.838;2023-07-28T09:50:03;4.97;;;4.47;;
75820;SDS011;64454;51.984;9.838;2023-07-28T09:52:34;4.90;;;4.40;;
75820;SDS011;64454;51.984;9.838;2023-07-28T09:55:08;4.50;;;4.10;;
75820;SDS011;64454;51.984;9.838;2023-07-28T09:57:41;4.38;;;3.97;;
75820;SDS011;64454;51.984;9.838;2023-07-28T10:00:13;4.85;;;4.45;;
75820;SDS011;64454;51.984;9.838;2023-07-28T10:02:43;5.03;;;4.60;;
75820;SDS011;64454;51.984;9.838;2023-07-28T10:05:11;4.60;;;4.20;;
75820;SDS011;64454;51.984;9.838;2023-07-28T10:07:40;4.63;;;4.23;;
75820;SDS011;64454;51.984;9.838;2023-07-28T10:10:10;5.00;;;4.60;;
75820;SDS011;64454;51.984;9.838;2023-07-28T10:12:41;4.93;;;4.53;;
75820;SDS011;64454;51.984;9.838;2023-07-28T10:15:13;5.03;;;4.60;;
75820;SDS011;64454;51.984;9.838;2023-07-28T10:17:43;5.25;;;4.75;;
75820;SDS011;64454;51.984;9.838;2023-07-28T10:20:32;4.80;;;4.40;;
75820;SDS011;64454;51.984;9.838;2023-07-28T10:23:04;5.07;;;4.67;;
75820;SDS011;64454;51.984;9.838;2023-07-28T10:25:34;5.03;;;4.55;;
75820;SDS011;64454;51.984;9.838;2023-07-28T10:28:04;5.63;;;5.07;;
75820;SDS011;64454;51.984;9.838;2023-07-28T10:30:36;4.50;;;4.10;;
75820;SDS011;64454;51.984;9.838;2023-07-28T10:33:05;5.60;;;4.50;;
75820;SDS011;64454;51.984;9.838;2023-07-28T10:35:32;5.07;;;4.57;;
75820;SDS011;64454;51.984;9.838;2023-07-28T10:41:09;4.43;;;3.97;;
75820;SDS011;64454;51.984;9.838;2023-07-28T10:43:43;4.80;;;4.40;;
75820;SDS011;64454;51.984;9.838;2023-07-28T10:46:15;5.40;;;4.90;;
75820;SDS011;64454;51.984;9.838;2023-07-28T10:48:45;4.55;;;4.15;;
75820;SDS011;64454;51.984;9.838;2023-07-28T10:51:19;5.30;;;4.38;;
75820;SDS011;64454;51.984;9.838;2023-07-28T10:53:50;6.17;;;4.40;;
75820;SDS011;64454;51.984;9.838;2023-07-28T10:56:17;5.35;;;4.85;;
75820;SDS011;64454;51.984;9.838;2023-07-28T10:58:46;4.90;;;4.50;;
75820;SDS011;64454;51.984;9.838;2023-07-28T11:01:14;4.72;;;4.32;;
75820;SDS011;64454;51.984;9.838;2023-07-28T11:03:41;4.65;;;4.25;;
75820;SDS011;64454;51.984;9.838;2023-07-28T11:06:09;4.93;;;4.30;;
75820;SDS011;64454;51.984;9.838;2023-07-28T11:08:36;4.80;;;4.40;;
75820;SDS011;64454;51.984;9.838;2023-07-28T11:11:04;4.53;;;4.03;;
75820;SDS011;64454;51.984;9.838;2023-07-28T11:13:32;5.50;;;4.35;;
75820;SDS011;64454;51.984;9.838;2023-07-28T11:16:02;4.80;;;4.40;;
75820;SDS011;64454;51.984;9.838;2023-07-28T11:18:30;5.77;;;4.70;;
75820;SDS011;64454;51.984;9.838;2023-07-28T11:20:57;5.43;;;4.77;;
75820;SDS011;64454;51.984;9.838;2023-07-28T11:23:24;5.60;;;4.97;;
75820;SDS011;64454;51.984;9.838;2023-07-28T11:25:52;5.32;;;4.72;;
75820;SDS011;64454;51.984;9.838;2023-07-28T11:28:19;5.15;;;4.65;;
75820;SDS011;64454;51.984;9.838;2023-07-28T11:30:47;5.10;;;4.70;;
75820;SDS011;64454;51.984;9.838;2023-07-28T11:33:15;6.13;;;5.10;;
75820;SDS011;64454;51.984;9.838;2023-07-28T11:35:43;5.57;;;5.07;;
75820;SDS011;64454;51.984;9.838;2023-07-28T11:38:11;5.78;;;5.28;;
75820;SDS011;64454;51.984;9.838;2023-07-28T11:40:40;5.95;;;5.45;;
75820;SDS011;64454;51.984;9.838;2023-07-28T11:43:08;5.22;;;4.72;;
75820;SDS011;64454;51.984;9.838;2023-07-28T11:45:35;5.60;;;5.10;;
75820;SDS011;64454;51.984;9.838;2023-07-28T11:48:03;5.60;;;5.00;;
75820;SDS011;64454;51.984;9.838;2023-07-28T11:50:35;5.82;;;5.30;;
75820;SDS011;64454;51.984;9.838;2023-07-28T11:53:05;5.40;;;4.90;;
75820;SDS011;64454;51.984;9.838;2023-07-28T11:55:34;5.60;;;5.10;;
75820;SDS011;64454;51.984;9.838;2023-07-28T11:58:02;5.40;;;4.90;;
75820;SDS011;64454;51.984;9.838;2023-07-28T12:00:31;5.00;;;4.60;;
75820;SDS011;64454;51.984;9.838;2023-07-28T12:03:00;5.60;;;5.00;;
75820;SDS011;64454;51.984;9.838;2023-07-28T12:05:30;5.35;;;4.85;;
75820;SDS011;64454;51.984;9.838;2023-07-28T12:07:59;5.03;;;4.53;;
75820;SDS011;64454;51.984;9.838;2023-07-28T12:10:28;5.20;;;4.70;;
75820;SDS011;64454;51.984;9.838;2023-07-28T12:12:56;6.20;;;4.60;;
75820;SDS011;64454;51.984;9.838;2023-07-28T12:15:29;4.82;;;4.43;;
75820;SDS011;64454;51.984;9.838;2023-07-28T12:18:01;5.20;;;4.70;;
75820;SDS011;64454;51.984;9.838;2023-07-28T12:20:34;4.78;;;4.20;;
75820;SDS011;64454;51.984;9.838;2023-07-28T12:23:07;5.10;;;4.60;;
75820;SDS011;64454;51.984;9.838;2023-07-28T12:25:35;4.88;;;4.38;;
75820;SDS011;64454;51.984;9.838;2023-07-28T12:28:02;4.70;;;4.30;;
75820;SDS011;64454;51.984;9.838;2023-07-28T12:30:30;4.45;;;4.05;;
75820;SDS011;64454;51.984;9.838;2023-07-28T12:32:57;5.80;;;4.10;;
75820;SDS011;64454;51.984;9.838;2023-07-28T12:35:25;4.50;;;4.10;;
75820;SDS011;64454;51.984;9.838;2023-07-28T12:37:56;6.30;;;4.80;;
75820;SDS011;64454;51.984;9.838;2023-07-28T12:40:26;5.25;;;4.75;;
75820;SDS011;64454;51.984;9.838;2023-07-28T12:42:54;5.10;;;4.70;;
75820;SDS011;64454;51.984;9.838;2023-07-28T12:45:22;5.65;;;5.15;;
75820;SDS011;64454;51.984;9.838;2023-07-28T12:47:50;5.93;;;5.43;;
75820;SDS011;64454;51.984;9.838;2023-07-28T12:50:19;5.20;;;4.70;;
75820;SDS011;64454;51.984;9.838;2023-07-28T12:52:46;5.30;;;4.80;;
75820;SDS011;64454;51.984;9.838;2023-07-28T12:55:13;5.43;;;4.53;;
75820;SDS011;64454;51.984;9.838;2023-07-28T12:57:42;5.20;;;4.70;;
75820;SDS011;64454;51.984;9.838;2023-07-28T13:00:10;5.22;;;4.72;;
75820;SDS011;64454;51.984;9.838;2023-07-28T13:02:39;5.85;;;4.78;;
75820;SDS011;64454;51.984;9.838;2023-07-28T13:05:07;5.70;;;5.20;;
75820;SDS011;64454;51.984;9.838;2023-07-28T13:07:35;5.30;;;4.80;;
75820;SDS011;64454;51.984;9.838;2023-07-28T13:10:02;4.90;;;4.45;;
75820;SDS011;64454;51.984;9.838;2023-07-28T13:12:33;5.00;;;4.60;;
75820;SDS011;64454;51.984;9.838;2023-07-28T13:15:02;5.07;;;4.65;;
75820;SDS011;64454;51.984;9.838;2023-07-28T13:17:30;5.03;;;4.53;;
75820;SDS011;64454;51.984;9.838;2023-07-28T13:19:57;5.72;;;5.13;;
75820;SDS011;64454;51.984;9.838;2023-07-28T13:22:24;5.60;;;5.10;;
75820;SDS011;64454;51.984;9.838;2023-07-28T13:24:52;5.07;;;4.60;;
75820;SDS011;64454;51.984;9.838;2023-07-28T13:27:19;5.80;;;5.20;;
75820;SDS011;64454;51.984;9.838;2023-07-28T13:29:46;5.60;;;5.10;;
75820;SDS011;64454;51.984;9.838;2023-07-28T13:32:18;5.60;;;5.10;;
75820;SDS011;64454;51.984;9.838;2023-07-28T13:34:50;6.00;;;5.40;;
75820;SDS011;64454;51.984;9.838;2023-07-28T13:37:17;6.38;;;5.78;;
75820;SDS011;64454;51.984;9.838;2023-07-28T13:39:44;5.32;;;4.82;;
75820;SDS011;64454;51.984;9.838;2023-07-28T13:42:11;5.78;;;5.28;;
75820;SDS011;64454;51.984;9.838;2023-07-28T13:44:40;6.28;;;5.68;;
75820;SDS011;64454;51.984;9.838;2023-07-28T13:47:08;6.13;;;5.53;;
75820;SDS011;64454;51.984;9.838;2023-07-28T13:49:36;5.93;;;5.03;;
75820;SDS011;64454;51.984;9.838;2023-07-28T13:52:03;5.78;;;5.20;;
75820;SDS011;64454;51.984;9.838;2023-07-28T13:54:32;5.60;;;5.10;;
75820;SDS011;64454;51.984;9.838;2023-07-28T13:56:59;5.85;;;5.25;;
75820;SDS011;64454;51.984;9.838;2023-07-28T13:59:26;6.22;;;5.63;;
75820;SDS011;64454;51.984;9.838;2023-07-28T14:01:53;6.63;;;6.03;;
75820;SDS011;64454;51.984;9.838;2023-07-28T14:04:20;5.82;;;5.32;;
75820;SDS011;64454;51.984;9.838;2023-07-28T14:06:49;6.93;;;6.22;;
75820;SDS011;64454;51.984;9.838;2023-07-28T14:09:16;7.03;;;6.05;;
75820;SDS011;64454;51.984;9.838;2023-07-28T14:11:45;6.85;;;6.15;;
75820;SDS011;64454;51.984;9.838;2023-07-28T14:14:12;6.10;;;5.50;;
75820;SDS011;64454;51.984;9.838;2023-07-28T14:16:41;6.40;;;5.80;;
75820;SDS011;64454;51.984;9.838;2023-07-28T14:19:08;6.25;;;5.70;;
75820;SDS011;64454;51.984;9.838;2023-07-28T14:21:35;6.40;;;5.70;;
75820;SDS011;64454;51.984;9.838;2023-07-28T14:24:04;6.47;;;5.75;;
75820;SDS011;64454;51.984;9.838;2023-07-28T14:26:31;6.50;;;5.90;;
75820;SDS011;64454;51.984;9.838;2023-07-28T14:28:59;6.40;;;5.80;;
75820;SDS011;64454;51.984;9.838;2023-07-28T14:31:26;6.97;;;6.27;;
75820;SDS011;64454;51.984;9.838;2023-07-28T14:33:52;5.95;;;5.45;;
75820;SDS011;64454;51.984;9.838;2023-07-28T14:36:19;6.75;;;6.05;;
75820;SDS011;64454;51.984;9.838;2023-07-28T14:38:46;6.70;;;6.00;;
75820;SDS011;64454;51.984;9.838;2023-07-28T14:41:15;7.70;;;6.32;;
75820;SDS011;64454;51.984;9.838;2023-07-28T14:43:41;5.70;;;4.97;;
75820;SDS011;64454;51.984;9.838;2023-07-28T14:46:09;6.80;;;6.20;;
75820;SDS011;64454;51.984;9.838;2023-07-28T14:48:36;6.80;;;6.10;;
75820;SDS011;64454;51.984;9.838;2023-07-28T14:51:03;5.90;;;5.40;;
75820;SDS011;64454;51.984;9.838;2023-07-28T14:53:30;6.25;;;5.65;;
75820;SDS011;64454;51.984;9.838;2023-07-28T14:55:59;6.55;;;5.80;;